In Rescue
 
Open Full Screen Window  High Contrast Mode
Wind Gusting 00 knots
07
November 19, 2019 12:36 PM CST
Weather Information
Wind Direction
  300 °
Wind Speed
  07 kt (8 mph)
Wind Gust
  00 kt (0 mph)
Altimeter
29.86 in
Visibility
7 SM
Temperature
06° C
43° F
Dewpoint
02° C
36° F
Humidity
76%
1hr Rain Fall
00.00 in.
24hr Rain Fall
00.03 in.
Sky Condition
Overcast @ 2,600 ft
Scattered @ 1,700 ft
MVFR

METAR KDVP 191836Z AUTO 30007KT 7SM SCT017 OVC026 06/02 A2986 RMK AO2 T00580022

FAA Disclaimer: The data displayed is for advisory purposes only and is not to be used for flight planning or operations.